Academy, New Jersey
Current Conditions -  °F | °C
As of 6:51 PM on Friday 24 Oct 2014 (Local Time) from KEWR Reporting Station
Broken Clouds Broken Clouds  
Wind Chill: 65°   Ceiling: 25000
Heat Index: 65°   Visibility: 10mi
Dew Point: 42°   Wind: 8mph
Humidity: 43%   Direction: 310°NW
Pressure: 29.8"   Gusts: NA
Location:  40.7334°N, 74.1735°W
Report Text: KEWR 242251Z 31007KT 10SM SCT055 SCT120 BKN250 18/06 A2980 RMK AO2 SLP089 T01830056
Loading
Personal Weather Stations






























Interactive Weather Map
Tropical Storm Tracking
New forecast layout! Learn more

10-Day Weather Forecast

Advertisements
Track Severe Weather on mobile